createdAt,value
2017-10-11T00:01:21.031Z,12.26
2017-10-11T00:03:49.287Z,12.26
2017-10-11T00:06:18.305Z,12.27
2017-10-11T00:08:46.554Z,12.32
2017-10-11T00:11:15.566Z,12.36
2017-10-11T00:13:43.826Z,12.37
2017-10-11T00:16:12.837Z,12.46
2017-10-11T00:18:41.104Z,12.45
2017-10-11T00:21:09.351Z,12.48
2017-10-11T00:23:37.595Z,12.52
2017-10-11T00:26:05.842Z,12.47
2017-10-11T00:28:34.100Z,12.51
2017-10-11T00:31:03.121Z,12.48
2017-10-11T00:33:31.373Z,12.49
2017-10-11T00:35:59.617Z,12.48
2017-10-11T00:38:27.876Z,12.48
2017-10-11T00:40:56.125Z,12.45
2017-10-11T00:43:24.375Z,12.46
2017-10-11T00:45:52.626Z,12.46
2017-10-11T00:48:21.650Z,12.44
2017-10-11T00:50:49.905Z,12.48
2017-10-11T00:53:18.919Z,12.47
2017-10-11T00:55:47.173Z,12.50
2017-10-11T00:58:16.198Z,12.51
2017-10-11T01:00:44.454Z,12.50
2017-10-11T01:03:12.702Z,12.49
2017-10-11T01:05:40.954Z,12.50
2017-10-11T01:08:09.212Z,12.53
2017-10-11T01:10:37.466Z,12.49
2017-10-11T01:13:05.718Z,12.49
2017-10-11T01:15:34.745Z,12.49
2017-10-11T01:18:02.995Z,12.47
2017-10-11T01:20:31.257Z,12.48
2017-10-11T01:23:00.273Z,12.49
2017-10-11T01:25:28.537Z,12.52
2017-10-11T01:27:57.549Z,12.50
2017-10-11T01:30:25.812Z,12.50
2017-10-11T01:32:54.065Z,12.53
2017-10-11T01:35:23.102Z,12.48
2017-10-11T01:37:51.362Z,12.47
2017-10-11T01:40:19.618Z,12.51
2017-10-11T01:42:48.641Z,12.51
2017-10-11T01:45:16.899Z,12.49
2017-10-11T01:47:45.154Z,12.52
2017-10-11T01:50:13.412Z,12.49
2017-10-11T01:52:41.657Z,12.52
2017-10-11T01:55:15.502Z,12.52
2017-10-11T01:57:43.754Z,12.49
2017-10-11T02:00:12.015Z,12.47
2017-10-11T02:02:40.264Z,12.48
2017-10-11T02:05:08.535Z,12.49
2017-10-11T02:07:37.541Z,12.46
2017-10-11T02:10:05.792Z,12.45
2017-10-11T02:12:34.050Z,12.47
2017-10-11T02:15:02.314Z,12.47
2017-10-11T02:17:30.574Z,12.48
2017-10-11T02:19:58.834Z,12.47
2017-10-11T02:22:27.082Z,12.47
2017-10-11T02:24:55.342Z,12.46
2017-10-11T02:27:24.357Z,12.43
2017-10-11T02:29:52.619Z,12.44
2017-10-11T02:32:20.865Z,12.46
2017-10-11T02:34:49.122Z,12.44
2017-10-11T02:37:17.371Z,12.45
2017-10-11T02:39:45.630Z,12.43
2017-10-11T02:42:13.884Z,12.41
2017-10-11T02:44:42.898Z,12.40
2017-10-11T02:47:11.144Z,12.40
2017-10-11T02:49:40.169Z,12.43
2017-10-11T02:52:08.416Z,12.40
2017-10-11T02:54:37.439Z,12.37
2017-10-11T02:57:05.687Z,12.35
2017-10-11T02:59:34.700Z,12.33
2017-10-11T03:02:02.958Z,12.34
2017-10-11T03:04:31.969Z,12.31
2017-10-11T03:07:00.219Z,12.33
2017-10-11T03:09:29.241Z,12.33
2017-10-11T03:11:57.492Z,12.31
2017-10-11T03:14:26.518Z,12.32
2017-10-11T03:16:54.758Z,12.31
2017-10-11T03:19:23.777Z,12.33
2017-10-11T03:21:52.031Z,12.29
2017-10-11T03:24:21.142Z,12.29
2017-10-11T03:26:49.390Z,12.34
2017-10-11T03:29:17.647Z,12.34
2017-10-11T03:31:45.894Z,12.35
2017-10-11T03:34:14.164Z,12.33
2017-10-11T03:36:42.415Z,12.28
2017-10-11T03:39:11.418Z,12.30
2017-10-11T03:41:39.669Z,12.28
2017-10-11T03:44:08.682Z,12.26
2017-10-11T03:46:36.927Z,12.24
2017-10-11T03:49:05.175Z,12.17
2017-10-11T03:51:33.428Z,12.16
2017-10-11T03:54:01.678Z,12.13
2017-10-11T03:56:30.691Z,12.14
2017-10-11T03:58:58.937Z,12.11
2017-10-11T04:01:27.958Z,12.09
2017-10-11T04:03:56.203Z,12.17
2017-10-11T04:06:25.217Z,12.15
2017-10-11T04:08:53.471Z,12.18
2017-10-11T04:11:22.494Z,12.23
2017-10-11T04:13:50.728Z,12.26
2017-10-11T04:16:18.980Z,12.26
2017-10-11T04:18:47.229Z,12.27
2017-10-11T04:21:15.473Z,12.32
2017-10-11T04:23:43.717Z,12.32
2017-10-11T04:26:11.971Z,12.30
2017-10-11T04:28:40.230Z,12.33
2017-10-11T04:31:08.477Z,12.33
2017-10-11T04:33:37.482Z,12.39
2017-10-11T04:36:05.739Z,12.37
2017-10-11T04:38:34.750Z,12.35
2017-10-11T04:41:03.004Z,12.35
2017-10-11T04:43:32.010Z,12.36
2017-10-11T04:46:00.265Z,12.37
2017-10-11T04:48:29.281Z,12.36
2017-10-11T04:50:57.536Z,12.35
2017-10-11T04:53:26.538Z,12.33
2017-10-11T04:55:55.569Z,12.33
2017-10-11T04:58:23.809Z,12.34
2017-10-11T05:00:52.828Z,12.34
2017-10-11T05:03:21.075Z,12.34
2017-10-11T05:05:50.092Z,12.35
2017-10-11T05:08:18.337Z,12.30
2017-10-11T05:10:47.353Z,12.32
2017-10-11T05:13:15.593Z,12.34
2017-10-11T05:15:43.853Z,12.34
2017-10-11T05:18:12.102Z,12.33
2017-10-11T05:20:40.350Z,12.35
2017-10-11T05:23:08.603Z,12.35
2017-10-11T05:25:37.627Z,12.34
2017-10-11T05:28:05.871Z,12.34
2017-10-11T05:30:34.903Z,12.32
2017-10-11T05:33:03.141Z,12.29
2017-10-11T05:35:32.179Z,12.26
2017-10-11T05:38:00.423Z,12.24
2017-10-11T05:40:29.451Z,12.20
2017-10-11T05:42:57.689Z,12.18
2017-10-11T05:45:26.715Z,12.17
2017-10-11T05:47:54.961Z,12.13
2017-10-11T05:50:23.221Z,12.13
2017-10-11T05:52:52.243Z,12.11
2017-10-11T05:55:20.496Z,12.14
2017-10-11T05:57:49.506Z,12.13
2017-10-11T06:00:17.767Z,12.16
2017-10-11T06:02:46.785Z,12.16
2017-10-11T06:05:15.042Z,12.20
2017-10-11T06:07:44.051Z,12.18
2017-10-11T06:10:12.325Z,12.19
2017-10-11T06:12:40.569Z,12.25
2017-10-11T06:15:09.586Z,12.22
2017-10-11T06:17:37.839Z,12.24
2017-10-11T06:20:06.862Z,12.24
2017-10-11T06:22:35.109Z,12.23
2017-10-11T06:25:04.122Z,12.26
2017-10-11T06:27:32.373Z,12.25
2017-10-11T06:30:01.389Z,12.30
2017-10-11T06:32:29.630Z,12.36
2017-10-11T06:34:57.903Z,12.37
2017-10-11T06:37:26.158Z,12.42
2017-10-11T06:39:54.403Z,12.45
2017-10-11T06:42:22.651Z,12.47
2017-10-11T06:44:51.665Z,12.50
2017-10-11T06:47:19.919Z,12.51
2017-10-11T06:49:48.922Z,12.54
2017-10-11T06:52:17.955Z,12.57
2017-10-11T06:54:46.205Z,12.61
2017-10-11T06:57:17.062Z,12.60
2017-10-11T06:59:45.314Z,12.61
2017-10-11T07:02:21.140Z,12.61
2017-10-11T07:04:50.219Z,12.71
2017-10-11T07:07:19.229Z,12.64
2017-10-11T07:09:48.279Z,12.66
2017-10-11T07:12:16.563Z,12.68
2017-10-11T07:14:44.823Z,12.65
2017-10-11T07:17:13.076Z,12.66
2017-10-11T07:19:41.318Z,12.60
2017-10-11T07:36:12.969Z,12.80
2017-10-11T07:38:41.985Z,12.73
2017-10-11T07:41:10.234Z,12.78
2017-10-11T07:43:38.480Z,12.79
2017-10-11T07:46:06.748Z,12.83
2017-10-11T07:48:34.990Z,12.71
2017-10-11T07:51:03.249Z,12.71
2017-10-11T07:53:32.258Z,12.76
2017-10-11T07:56:00.511Z,12.67
2017-10-11T07:58:29.523Z,12.76
2017-10-11T08:00:57.781Z,12.83
2017-10-11T08:03:26.785Z,12.87
2017-10-11T08:05:55.047Z,13.06
2017-10-11T08:08:24.055Z,13.07
2017-10-11T08:10:53.062Z,13.38
2017-10-11T08:13:21.309Z,13.35
2017-10-11T08:15:50.326Z,13.20
2017-10-11T08:18:18.575Z,13.16
2017-10-11T08:20:47.597Z,13.33
2017-10-11T08:23:15.838Z,13.60
2017-10-11T08:25:44.085Z,13.50
2017-10-11T08:28:12.363Z,13.37
2017-10-11T08:30:40.619Z,13.67
2017-10-11T08:33:08.881Z,13.88
2017-10-11T08:35:37.130Z,13.69
2017-10-11T08:38:06.138Z,13.59
2017-10-11T08:40:34.390Z,13.76
2017-10-11T08:43:03.401Z,13.96
2017-10-11T08:45:31.658Z,14.01
2017-10-11T08:48:00.674Z,14.26
2017-10-11T08:50:29.679Z,14.44
2017-10-11T08:52:57.927Z,14.42
2017-10-11T08:55:26.935Z,14.07
2017-10-11T08:57:55.953Z,14.25
2017-10-11T09:00:24.185Z,14.25
2017-10-11T09:02:53.207Z,13.92
2017-10-11T09:05:21.445Z,14.12
2017-10-11T09:07:49.693Z,14.22
2017-10-11T09:10:17.926Z,14.17
2017-10-11T09:12:46.186Z,14.02
2017-10-11T09:15:15.206Z,14.12
2017-10-11T09:17:43.490Z,14.18
2017-10-11T09:20:11.723Z,14.11
2017-10-11T09:22:40.736Z,14.13
2017-10-11T09:25:08.984Z,14.31
2017-10-11T09:27:37.231Z,14.43
2017-10-11T09:30:05.467Z,14.47
2017-10-11T09:32:33.717Z,14.38
2017-10-11T09:35:02.730Z,14.71
2017-10-11T09:37:30.980Z,14.61
2017-10-11T09:39:59.981Z,14.63
2017-10-11T09:42:29.007Z,14.90
2017-10-11T09:44:57.248Z,14.89
2017-10-11T09:47:26.253Z,14.92
2017-10-11T09:49:54.502Z,14.79
2017-10-11T09:52:22.750Z,14.69
2017-10-11T09:54:50.993Z,14.87
2017-10-11T09:57:19.238Z,14.84
2017-10-11T09:59:48.243Z,14.85
2017-10-11T10:02:17.261Z,15.03
2017-10-11T10:04:45.498Z,15.10
2017-10-11T10:07:14.526Z,14.94
2017-10-11T10:09:44.319Z,14.94
2017-10-11T10:12:13.628Z,14.89
2017-10-11T10:14:44.912Z,15.15
2017-10-11T10:17:13.262Z,15.01
2017-10-11T10:19:41.616Z,14.94
2017-10-11T10:22:09.954Z,14.84
2017-10-11T10:24:38.324Z,14.85
2017-10-11T10:27:06.705Z,14.93
2017-10-11T10:29:37.114Z,14.80
2017-10-11T10:32:05.455Z,14.93
2017-10-11T10:34:34.573Z,14.76
2017-10-11T10:37:04.521Z,14.86
2017-10-11T10:39:41.066Z,15.00
2017-10-11T10:43:49.023Z,15.25
2017-10-11T10:47:01.461Z,15.44
2017-10-11T10:49:33.129Z,15.25
2017-10-11T10:52:01.609Z,15.02
2017-10-11T10:54:29.986Z,14.93
2017-10-11T10:56:58.368Z,14.96
2017-10-11T10:59:26.646Z,14.97
2017-10-11T11:01:56.872Z,14.90
2017-10-11T11:04:25.251Z,14.98
2017-10-11T11:06:53.573Z,15.02
2017-10-11T11:09:21.915Z,14.88
2017-10-11T11:11:50.236Z,15.02
2017-10-11T11:14:19.459Z,15.17
2017-10-11T11:16:48.673Z,15.38
2017-10-11T11:19:31.319Z,15.07
2017-10-11T11:22:00.724Z,15.12
2017-10-11T11:24:32.561Z,15.31
2017-10-11T11:27:01.949Z,15.07
2017-10-11T11:39:32.743Z,15.10
2017-10-11T11:42:04.960Z,15.16
2017-10-11T11:44:33.349Z,15.13
2017-10-11T11:47:05.362Z,15.24
2017-10-11T11:49:33.670Z,15.02
2017-10-11T11:52:02.038Z,15.27
2017-10-11T11:54:30.851Z,15.04
2017-10-11T11:56:59.128Z,15.05
2017-10-11T11:59:27.435Z,14.98
2017-10-11T12:01:56.486Z,15.03
2017-10-11T12:04:29.130Z,14.94
2017-10-11T12:07:05.678Z,15.05
2017-10-11T12:09:55.421Z,14.98
2017-10-11T12:12:23.873Z,15.29
2017-10-11T12:14:52.223Z,15.31
2017-10-11T12:17:20.485Z,15.32
2017-10-11T12:19:57.303Z,15.09
2017-10-11T12:22:57.023Z,15.08
2017-10-11T12:25:31.673Z,15.28
2017-10-11T13:11:50.636Z,15.27
2017-10-11T13:14:20.370Z,15.53
2017-10-11T13:16:53.438Z,15.50
2017-10-11T13:26:33.040Z,15.20
2017-10-11T13:29:41.802Z,15.19
2017-10-11T13:32:58.110Z,15.13
2017-10-11T13:35:26.465Z,15.22
2017-10-11T13:37:55.571Z,15.21
2017-10-11T13:40:23.941Z,15.17
2017-10-11T13:43:02.724Z,15.14
2017-10-11T13:45:31.049Z,15.06
2017-10-11T14:44:55.987Z,14.97
2017-10-11T14:47:24.377Z,14.89
2017-10-11T14:50:01.351Z,14.94
2017-10-11T14:52:30.455Z,14.92
2017-10-11T15:04:38.649Z,14.90
2017-10-11T15:07:13.583Z,14.96
2017-10-11T15:09:51.476Z,14.89
2017-10-11T15:12:33.363Z,14.89
2017-10-11T15:15:01.645Z,14.93
2017-10-11T15:17:29.899Z,14.87
2017-10-11T15:19:58.134Z,14.86
2017-10-11T15:22:26.390Z,14.85
2017-10-11T15:24:54.641Z,14.87
2017-10-11T15:27:23.666Z,14.84
2017-10-11T15:29:51.905Z,14.88
2017-10-11T15:32:20.923Z,14.88
2017-10-11T15:34:49.461Z,14.89
2017-10-11T15:37:17.809Z,14.84
2017-10-11T15:39:46.131Z,14.83
2017-10-11T15:42:15.201Z,14.81
2017-10-11T15:44:43.446Z,14.78
2017-10-11T15:47:14.720Z,14.79
2017-10-11T15:49:43.003Z,14.77
2017-10-11T15:52:11.261Z,14.75
2017-10-11T15:54:39.664Z,14.74
2017-10-11T15:57:09.549Z,14.71
2017-10-11T15:59:37.837Z,14.66
2017-10-11T16:02:06.086Z,14.63
2017-10-11T16:04:34.338Z,14.65
2017-10-11T16:07:03.355Z,14.60
2017-10-11T16:09:31.598Z,14.60
2017-10-11T16:12:00.619Z,14.57
2017-10-11T16:14:28.872Z,14.55
2017-10-11T16:16:57.129Z,14.54
2017-10-11T16:19:26.148Z,14.51
2017-10-11T16:21:54.394Z,14.52
2017-10-11T16:24:23.411Z,14.44
2017-10-11T16:26:51.666Z,14.41
2017-10-11T16:29:20.680Z,14.42
2017-10-11T16:31:48.950Z,14.42
2017-10-11T16:34:17.973Z,14.39
2017-10-11T16:36:46.225Z,14.37
2017-10-11T16:39:14.485Z,14.36
2017-10-11T16:41:43.494Z,14.39
2017-10-11T16:44:11.752Z,14.43
2017-10-11T16:46:40.760Z,14.41
2017-10-11T16:49:09.017Z,14.33
2017-10-11T16:51:38.028Z,14.41
2017-10-11T16:54:06.274Z,14.38
2017-10-11T16:56:34.527Z,14.38
2017-10-11T16:59:02.776Z,14.38
2017-10-11T17:01:31.032Z,14.32
2017-10-11T17:03:59.286Z,14.32
2017-10-11T17:06:28.320Z,14.31
2017-10-11T17:08:56.571Z,14.36
2017-10-11T17:11:25.597Z,14.31
2017-10-11T17:13:53.847Z,14.39
2017-10-11T17:16:22.864Z,14.37
2017-10-11T17:18:51.139Z,14.31
2017-10-11T17:21:19.401Z,14.23
2017-10-11T17:23:48.372Z,14.15
2017-10-11T17:26:17.379Z,14.09
2017-10-11T17:28:45.645Z,14.11
2017-10-11T17:31:14.670Z,14.06
2017-10-11T17:33:42.933Z,13.86
2017-10-11T17:36:11.181Z,13.89
2017-10-11T17:38:40.204Z,13.72
2017-10-11T17:41:08.451Z,13.74
2017-10-11T17:43:37.485Z,13.68
2017-10-11T17:46:05.741Z,13.52
2017-10-11T17:48:34.002Z,13.52
2017-10-11T17:51:02.260Z,13.40
2017-10-11T17:53:30.521Z,13.34
2017-10-11T17:55:58.776Z,13.23
2017-10-11T17:58:27.040Z,13.26
2017-10-11T18:00:55.288Z,13.20
2017-10-11T18:03:23.546Z,13.15
2017-10-11T18:05:52.553Z,12.99
2017-10-11T18:08:20.820Z,12.99
2017-10-11T18:10:49.834Z,12.76
2017-10-11T18:13:18.105Z,12.67
2017-10-11T18:15:46.360Z,12.56
2017-10-11T18:18:15.404Z,12.57
2017-10-11T18:20:43.649Z,12.36
2017-10-11T18:23:11.908Z,12.31
2017-10-11T18:25:40.933Z,12.25
2017-10-11T18:28:09.192Z,12.31
2017-10-11T18:30:37.448Z,12.34
2017-10-11T18:33:06.515Z,12.29
2017-10-11T18:35:34.778Z,12.23
2017-10-11T18:38:03.045Z,12.09
2017-10-11T18:40:31.309Z,12.05
2017-10-11T18:42:59.556Z,11.98
2017-10-11T18:45:28.595Z,11.96
2017-10-11T18:47:56.861Z,11.84
2017-10-11T18:50:25.176Z,11.94
2017-10-11T18:52:53.453Z,11.79
2017-10-11T18:55:21.727Z,11.78
2017-10-11T18:57:49.982Z,11.84
2017-10-11T19:00:18.233Z,11.92
2017-10-11T19:02:46.483Z,11.89
2017-10-11T19:05:14.721Z,11.80
2017-10-11T19:07:42.993Z,11.82
2017-10-11T19:10:11.257Z,11.74
2017-10-11T19:12:39.536Z,11.78
2017-10-11T19:15:07.805Z,11.75
2017-10-11T19:17:36.083Z,11.86
2017-10-11T19:20:04.338Z,11.85
2017-10-11T19:22:32.618Z,11.95
2017-10-11T19:25:00.866Z,11.98
2017-10-11T19:27:29.130Z,12.01
2017-10-11T19:29:58.167Z,11.99
2017-10-11T19:32:26.442Z,11.89
2017-10-11T19:34:54.707Z,11.78
2017-10-11T19:37:22.959Z,11.88
2017-10-11T19:39:51.261Z,11.94
2017-10-11T19:42:19.528Z,12.15
2017-10-11T19:44:47.797Z,12.12
2017-10-11T19:47:16.046Z,12.22
2017-10-11T19:49:45.087Z,12.37
2017-10-11T19:52:13.416Z,12.33
2017-10-11T19:54:42.439Z,12.30
2017-10-11T19:57:10.684Z,12.19
2017-10-11T19:59:39.703Z,12.13
2017-10-11T20:02:07.960Z,12.23
2017-10-11T20:04:36.979Z,12.11
2017-10-11T20:07:05.238Z,12.23
2017-10-11T20:09:34.253Z,12.21
2017-10-11T20:12:02.533Z,12.11
2017-10-11T20:14:31.005Z,12.08
2017-10-11T20:16:59.283Z,11.95
2017-10-11T20:19:27.547Z,11.94
2017-10-11T20:21:55.832Z,11.95
2017-10-11T20:24:24.095Z,12.00
2017-10-11T20:26:52.383Z,12.09
2017-10-11T20:29:20.654Z,12.01
2017-10-11T20:31:48.894Z,12.03
2017-10-11T20:34:17.187Z,12.06
2017-10-11T20:36:46.206Z,12.16
2017-10-11T20:39:14.487Z,12.09
2017-10-11T20:41:42.732Z,12.11
2017-10-11T20:44:11.780Z,11.98
2017-10-11T20:46:40.850Z,12.04
2017-10-11T20:49:09.129Z,11.94
2017-10-11T20:51:37.419Z,11.90
2017-10-11T20:54:06.462Z,11.79
2017-10-11T20:56:35.523Z,11.79
2017-10-11T20:59:03.770Z,11.77
2017-10-11T21:01:32.066Z,11.83
2017-10-11T21:04:00.397Z,11.83
2017-10-11T21:06:29.412Z,11.63
2017-10-11T21:08:57.691Z,11.53
2017-10-11T21:11:25.982Z,11.59
2017-10-11T21:13:54.260Z,11.70
2017-10-11T21:16:22.534Z,11.57
2017-10-11T21:18:50.788Z,11.52
2017-10-11T21:21:19.067Z,11.57
2017-10-11T21:23:47.347Z,11.70
2017-10-11T21:26:15.596Z,11.47
2017-10-11T21:28:43.871Z,11.45
2017-10-11T21:31:12.912Z,11.45
2017-10-11T21:33:41.175Z,11.28
2017-10-11T21:36:09.431Z,11.13
2017-10-11T21:38:37.704Z,11.27
2017-10-11T21:41:05.970Z,11.70
2017-10-11T21:43:34.254Z,11.38
2017-10-11T21:46:02.527Z,11.63
2017-10-11T21:48:30.776Z,11.38
2017-10-11T21:50:59.109Z,11.43
2017-10-11T21:53:27.376Z,11.48
2017-10-11T21:55:55.643Z,11.32
2017-10-11T21:58:23.890Z,11.45
2017-10-11T22:00:52.907Z,11.71
2017-10-11T22:03:21.155Z,12.00
2017-10-11T22:05:50.199Z,12.04
2017-10-11T22:08:18.458Z,12.09
2017-10-11T22:10:46.754Z,12.24
2017-10-11T22:13:15.974Z,12.27
2017-10-11T22:15:44.240Z,12.34
2017-10-11T22:18:12.489Z,12.40
2017-10-11T22:20:40.737Z,12.29
2017-10-11T22:23:09.014Z,12.32
2017-10-11T22:25:37.273Z,12.38
2017-10-11T22:28:06.294Z,12.43
2017-10-11T22:30:34.578Z,12.51
2017-10-11T22:33:02.818Z,12.44
2017-10-11T22:35:31.843Z,12.27
2017-10-11T22:38:00.093Z,12.29
2017-10-11T22:40:29.110Z,11.99
2017-10-11T22:42:57.355Z,12.11
2017-10-11T22:45:26.386Z,12.09
2017-10-11T22:47:54.638Z,12.12
2017-10-11T22:50:22.902Z,12.01
2017-10-11T22:52:51.927Z,12.21
2017-10-11T22:55:20.177Z,12.12
2017-10-11T22:57:49.181Z,12.12
2017-10-11T23:00:17.443Z,12.22
2017-10-11T23:02:46.461Z,12.34
2017-10-11T23:05:14.718Z,12.45
2017-10-11T23:07:42.975Z,12.41
2017-10-11T23:10:11.222Z,12.41
2017-10-11T23:12:39.478Z,12.53
2017-10-11T23:15:07.740Z,12.60
2017-10-11T23:17:35.994Z,12.60
2017-10-11T23:20:04.275Z,12.57
2017-10-11T23:22:32.534Z,12.62
2017-10-11T23:25:01.567Z,12.63
2017-10-11T23:27:29.826Z,12.59
2017-10-11T23:29:58.083Z,12.52
2017-10-11T23:32:27.104Z,12.50
2017-10-11T23:34:55.356Z,12.54
2017-10-11T23:37:23.607Z,12.52
2017-10-11T23:39:51.857Z,12.50
2017-10-11T23:42:20.122Z,12.55
2017-10-11T23:44:48.388Z,12.52
2017-10-11T23:47:16.640Z,12.51
2017-10-11T23:49:44.899Z,12.53
2017-10-11T23:52:13.910Z,12.56
2017-10-11T23:54:42.171Z,12.53
2017-10-11T23:57:11.190Z,12.55
2017-10-11T23:59:39.453Z,12.52
